sensor_id;sensor_type;location;lat;lon;timestamp;temperature;humidity
6788;DHT22;3431;47.966;10.268;2023-08-17T00:00:07;20.20;99.90
6788;DHT22;3431;47.966;10.268;2023-08-17T00:00:31;20.20;99.90
6788;DHT22;3431;47.966;10.268;2023-08-17T00:00:53;20.20;99.90
6788;DHT22;3431;47.966;10.268;2023-08-17T00:01:15;20.20;99.90
6788;DHT22;3431;47.966;10.268;2023-08-17T00:01:36;20.20;99.90
6788;DHT22;3431;47.966;10.268;2023-08-17T00:01:58;20.20;99.90
6788;DHT22;3431;47.966;10.268;2023-08-17T00:02:19;20.20;99.90
6788;DHT22;3431;47.966;10.268;2023-08-17T00:02:42;20.10;99.90
6788;DHT22;3431;47.966;10.268;2023-08-17T00:03:04;20.20;99.90
6788;DHT22;3431;47.966;10.268;2023-08-17T00:03:25;20.20;99.90
6788;DHT22;3431;47.966;10.268;2023-08-17T00:03:47;20.20;99.90
6788;DHT22;3431;47.966;10.268;2023-08-17T00:04:10;20.20;99.90
6788;DHT22;3431;47.966;10.268;2023-08-17T00:04:32;20.20;99.90
6788;DHT22;3431;47.966;10.268;2023-08-17T00:04:54;20.20;99.90
6788;DHT22;3431;47.966;10.268;2023-08-17T00:05:16;20.20;99.90
6788;DHT22;3431;47.966;10.268;2023-08-17T00:05:37;20.10;99.90
6788;DHT22;3431;47.966;10.268;2023-08-17T00:05:59;20.20;99.90
6788;DHT22;3431;47.966;10.268;2023-08-17T00:06:21;20.20;99.90
6788;DHT22;3431;47.966;10.268;2023-08-17T00:06:43;20.20;99.90
6788;DHT22;3431;47.966;10.268;2023-08-17T00:07:04;20.20;99.90
6788;DHT22;3431;47.966;10.268;2023-08-17T00:07:26;20.20;99.90
6788;DHT22;3431;47.966;10.268;2023-08-17T00:07:48;20.20;99.90
6788;DHT22;3431;47.966;10.268;2023-08-17T00:08:10;20.20;99.90
6788;DHT22;3431;47.966;10.268;2023-08-17T00:08:32;20.20;99.90
6788;DHT22;3431;47.966;10.268;2023-08-17T00:08:55;20.20;99.90
6788;DHT22;3431;47.966;10.268;2023-08-17T00:09:17;20.20;99.90
6788;DHT22;3431;47.966;10.268;2023-08-17T00:09:39;20.20;99.90
6788;DHT22;3431;47.966;10.268;2023-08-17T00:10:02;20.20;99.90
6788;DHT22;3431;47.966;10.268;2023-08-17T00:10:24;20.20;99.90
6788;DHT22;3431;47.966;10.268;2023-08-17T00:10:45;20.10;99.90
6788;DHT22;3431;47.966;10.268;2023-08-17T00:11:08;20.10;99.90
6788;DHT22;3431;47.966;10.268;2023-08-17T00:11:30;20.10;99.90
6788;DHT22;3431;47.966;10.268;2023-08-17T00:11:52;20.10;99.90
6788;DHT22;3431;47.966;10.268;2023-08-17T00:12:14;20.10;99.90
6788;DHT22;3431;47.966;10.268;2023-08-17T00:12:36;20.10;99.90
6788;DHT22;3431;47.966;10.268;2023-08-17T00:12:58;20.10;99.90
6788;DHT22;3431;47.966;10.268;2023-08-17T00:13:19;20.10;99.90
6788;DHT22;3431;47.966;10.268;2023-08-17T00:13:42;20.10;99.90
6788;DHT22;3431;47.966;10.268;2023-08-17T00:14:04;20.10;99.90
6788;DHT22;3431;47.966;10.268;2023-08-17T00:14:25;20.10;99.90
6788;DHT22;3431;47.966;10.268;2023-08-17T00:14:47;20.10;99.90
6788;DHT22;3431;47.966;10.268;2023-08-17T00:15:09;20.10;99.90
6788;DHT22;3431;47.966;10.268;2023-08-17T00:15:32;20.10;99.90
6788;DHT22;3431;47.966;10.268;2023-08-17T00:15:53;20.10;99.90
6788;DHT22;3431;47.966;10.268;2023-08-17T00:16:15;20.10;99.90
6788;DHT22;3431;47.966;10.268;2023-08-17T00:16:36;20.10;99.90
6788;DHT22;3431;47.966;10.268;2023-08-17T00:16:59;20.20;99.90
6788;DHT22;3431;47.966;10.268;2023-08-17T00:17:21;20.20;99.90
6788;DHT22;3431;47.966;10.268;2023-08-17T00:17:42;20.20;99.90
6788;DHT22;3431;47.966;10.268;2023-08-17T00:18:04;20.20;99.90
6788;DHT22;3431;47.966;10.268;2023-08-17T00:18:25;20.10;99.90
6788;DHT22;3431;47.966;10.268;2023-08-17T00:18:47;20.10;99.90
6788;DHT22;3431;47.966;10.268;2023-08-17T00:19:10;20.10;99.90
6788;DHT22;3431;47.966;10.268;2023-08-17T00:19:31;20.10;99.90
6788;DHT22;3431;47.966;10.268;2023-08-17T00:19:53;20.10;99.90
6788;DHT22;3431;47.966;10.268;2023-08-17T00:20:16;20.10;99.90
6788;DHT22;3431;47.966;10.268;2023-08-17T00:20:37;20.10;99.90
6788;DHT22;3431;47.966;10.268;2023-08-17T00:20:59;20.10;99.90
6788;DHT22;3431;47.966;10.268;2023-08-17T00:21:21;20.10;99.90
6788;DHT22;3431;47.966;10.268;2023-08-17T00:21:44;20.10;99.90
6788;DHT22;3431;47.966;10.268;2023-08-17T00:22:06;20.00;99.90
6788;DHT22;3431;47.966;10.268;2023-08-17T00:22:27;20.00;99.90
6788;DHT22;3431;47.966;10.268;2023-08-17T00:22:49;20.00;99.90
6788;DHT22;3431;47.966;10.268;2023-08-17T00:23:12;20.00;99.90
6788;DHT22;3431;47.966;10.268;2023-08-17T00:23:33;20.00;99.90
6788;DHT22;3431;47.966;10.268;2023-08-17T00:23:56;20.00;99.90
6788;DHT22;3431;47.966;10.268;2023-08-17T00:24:18;19.90;99.90
6788;DHT22;3431;47.966;10.268;2023-08-17T00:24:40;19.90;99.90
6788;DHT22;3431;47.966;10.268;2023-08-17T00:25:03;19.90;99.90
6788;DHT22;3431;47.966;10.268;2023-08-17T00:25:26;19.90;99.90
6788;DHT22;3431;47.966;10.268;2023-08-17T00:25:47;19.90;99.90
6788;DHT22;3431;47.966;10.268;2023-08-17T00:26:09;19.90;99.90
6788;DHT22;3431;47.966;10.268;2023-08-17T00:26:31;19.90;99.90
6788;DHT22;3431;47.966;10.268;2023-08-17T00:26:53;19.80;99.90
6788;DHT22;3431;47.966;10.268;2023-08-17T00:27:15;19.80;99.90
6788;DHT22;3431;47.966;10.268;2023-08-17T00:27:38;19.80;99.90
6788;DHT22;3431;47.966;10.268;2023-08-17T00:27:59;19.80;99.90
6788;DHT22;3431;47.966;10.268;2023-08-17T00:28:21;19.80;99.90
6788;DHT22;3431;47.966;10.268;2023-08-17T00:28:43;19.80;99.90
6788;DHT22;3431;47.966;10.268;2023-08-17T00:29:05;19.80;99.90
6788;DHT22;3431;47.966;10.268;2023-08-17T00:29:27;19.80;99.90
6788;DHT22;3431;47.966;10.268;2023-08-17T00:29:49;19.80;99.90
6788;DHT22;3431;47.966;10.268;2023-08-17T00:30:11;19.70;99.90
6788;DHT22;3431;47.966;10.268;2023-08-17T00:30:33;19.80;99.90
6788;DHT22;3431;47.966;10.268;2023-08-17T00:30:57;19.70;99.90
6788;DHT22;3431;47.966;10.268;2023-08-17T00:31:19;19.70;99.90
6788;DHT22;3431;47.966;10.268;2023-08-17T00:31:41;19.70;99.90
6788;DHT22;3431;47.966;10.268;2023-08-17T00:32:03;19.70;99.90
6788;DHT22;3431;47.966;10.268;2023-08-17T00:32:25;19.70;99.90
6788;DHT22;3431;47.966;10.268;2023-08-17T00:32:47;19.70;99.90
6788;DHT22;3431;47.966;10.268;2023-08-17T00:33:10;19.70;99.90
6788;DHT22;3431;47.966;10.268;2023-08-17T00:33:31;19.70;99.90
6788;DHT22;3431;47.966;10.268;2023-08-17T00:33:53;19.70;99.90
6788;DHT22;3431;47.966;10.268;2023-08-17T00:34:14;19.70;99.90
6788;DHT22;3431;47.966;10.268;2023-08-17T00:34:36;19.70;99.90
6788;DHT22;3431;47.966;10.268;2023-08-17T00:34:58;19.70;99.90
6788;DHT22;3431;47.966;10.268;2023-08-17T00:35:22;19.60;99.90
6788;DHT22;3431;47.966;10.268;2023-08-17T00:35:44;19.60;99.90
6788;DHT22;3431;47.966;10.268;2023-08-17T00:36:07;19.60;99.90
6788;DHT22;3431;47.966;10.268;2023-08-17T00:36:28;19.70;99.90
6788;DHT22;3431;47.966;10.268;2023-08-17T00:36:49;19.70;99.90
6788;DHT22;3431;47.966;10.268;2023-08-17T00:37:12;19.60;99.90
6788;DHT22;3431;47.966;10.268;2023-08-17T00:37:33;19.60;99.90
6788;DHT22;3431;47.966;10.268;2023-08-17T00:37:55;19.60;99.90
6788;DHT22;3431;47.966;10.268;2023-08-17T00:38:16;19.60;99.90
6788;DHT22;3431;47.966;10.268;2023-08-17T00:38:38;19.60;99.90
6788;DHT22;3431;47.966;10.268;2023-08-17T00:39:01;19.60;99.90
6788;DHT22;3431;47.966;10.268;2023-08-17T00:39:23;19.60;99.90
6788;DHT22;3431;47.966;10.268;2023-08-17T00:39:45;19.60;99.90
6788;DHT22;3431;47.966;10.268;2023-08-17T00:40:08;19.60;99.90
6788;DHT22;3431;47.966;10.268;2023-08-17T00:40:29;19.60;99.90
6788;DHT22;3431;47.966;10.268;2023-08-17T00:40:51;19.50;99.90
6788;DHT22;3431;47.966;10.268;2023-08-17T00:41:13;19.50;99.90
6788;DHT22;3431;47.966;10.268;2023-08-17T00:41:35;19.50;99.90
6788;DHT22;3431;47.966;10.268;2023-08-17T00:41:56;19.50;99.90
6788;DHT22;3431;47.966;10.268;2023-08-17T00:42:18;19.50;99.90
6788;DHT22;3431;47.966;10.268;2023-08-17T00:42:39;19.50;99.90
6788;DHT22;3431;47.966;10.268;2023-08-17T00:43:01;19.50;99.90
6788;DHT22;3431;47.966;10.268;2023-08-17T00:43:23;19.40;99.90
6788;DHT22;3431;47.966;10.268;2023-08-17T00:43:45;19.40;99.90
6788;DHT22;3431;47.966;10.268;2023-08-17T00:44:06;19.40;99.90
6788;DHT22;3431;47.966;10.268;2023-08-17T00:44:28;19.40;99.90
6788;DHT22;3431;47.966;10.268;2023-08-17T00:44:49;19.40;99.90
6788;DHT22;3431;47.966;10.268;2023-08-17T00:45:12;19.40;99.90
6788;DHT22;3431;47.966;10.268;2023-08-17T00:45:34;19.40;99.90
6788;DHT22;3431;47.966;10.268;2023-08-17T00:45:56;19.30;99.90
6788;DHT22;3431;47.966;10.268;2023-08-17T00:46:17;19.30;99.90
6788;DHT22;3431;47.966;10.268;2023-08-17T00:46:41;19.30;99.90
6788;DHT22;3431;47.966;10.268;2023-08-17T00:47:03;19.30;99.90
6788;DHT22;3431;47.966;10.268;2023-08-17T00:47:26;19.30;99.90
6788;DHT22;3431;47.966;10.268;2023-08-17T00:47:47;19.30;99.90
6788;DHT22;3431;47.966;10.268;2023-08-17T00:48:09;19.30;99.90
6788;DHT22;3431;47.966;10.268;2023-08-17T00:48:33;19.30;99.90
6788;DHT22;3431;47.966;10.268;2023-08-17T00:48:55;19.30;99.90
6788;DHT22;3431;47.966;10.268;2023-08-17T00:49:17;19.30;99.90
6788;DHT22;3431;47.966;10.268;2023-08-17T00:49:39;19.30;99.90
6788;DHT22;3431;47.966;10.268;2023-08-17T00:50:01;19.30;99.90
6788;DHT22;3431;47.966;10.268;2023-08-17T00:50:23;19.30;99.90
6788;DHT22;3431;47.966;10.268;2023-08-17T00:50:48;19.30;99.90
6788;DHT22;3431;47.966;10.268;2023-08-17T00:51:11;19.30;99.90
6788;DHT22;3431;47.966;10.268;2023-08-17T00:51:33;19.20;99.90
6788;DHT22;3431;47.966;10.268;2023-08-17T00:51:55;19.20;99.90
6788;DHT22;3431;47.966;10.268;2023-08-17T00:52:16;19.20;99.90
6788;DHT22;3431;47.966;10.268;2023-08-17T00:52:38;19.20;99.90
6788;DHT22;3431;47.966;10.268;2023-08-17T00:53:01;19.20;99.90
6788;DHT22;3431;47.966;10.268;2023-08-17T00:53:26;19.20;99.90
6788;DHT22;3431;47.966;10.268;2023-08-17T00:53:48;19.20;99.90
6788;DHT22;3431;47.966;10.268;2023-08-17T00:54:12;19.10;99.90
6788;DHT22;3431;47.966;10.268;2023-08-17T00:54:34;19.10;99.90
6788;DHT22;3431;47.966;10.268;2023-08-17T00:54:56;19.10;99.90
6788;DHT22;3431;47.966;10.268;2023-08-17T00:55:19;19.10;99.90
6788;DHT22;3431;47.966;10.268;2023-08-17T00:55:42;19.10;99.90
6788;DHT22;3431;47.966;10.268;2023-08-17T00:56:04;19.10;99.90
6788;DHT22;3431;47.966;10.268;2023-08-17T00:56:27;19.10;99.90
6788;DHT22;3431;47.966;10.268;2023-08-17T00:56:49;19.10;99.90
6788;DHT22;3431;47.966;10.268;2023-08-17T00:57:11;19.10;99.90
6788;DHT22;3431;47.966;10.268;2023-08-17T00:57:34;19.10;99.90
6788;DHT22;3431;47.966;10.268;2023-08-17T00:57:56;19.10;99.90
6788;DHT22;3431;47.966;10.268;2023-08-17T00:58:18;19.10;99.90
6788;DHT22;3431;47.966;10.268;2023-08-17T00:58:40;19.10;99.90
6788;DHT22;3431;47.966;10.268;2023-08-17T00:59:03;19.10;99.90
6788;DHT22;3431;47.966;10.268;2023-08-17T00:59:25;19.10;99.90
6788;DHT22;3431;47.966;10.268;2023-08-17T00:59:47;19.10;99.90
6788;DHT22;3431;47.966;10.268;2023-08-17T01:00:11;19.10;99.90
6788;DHT22;3431;47.966;10.268;2023-08-17T01:00:33;19.20;99.90
6788;DHT22;3431;47.966;10.268;2023-08-17T01:00:55;19.20;99.90
6788;DHT22;3431;47.966;10.268;2023-08-17T01:01:16;19.20;99.90
6788;DHT22;3431;47.966;10.268;2023-08-17T01:01:38;19.20;99.90
6788;DHT22;3431;47.966;10.268;2023-08-17T01:02:00;19.20;99.90
6788;DHT22;3431;47.966;10.268;2023-08-17T01:02:23;19.20;99.90
6788;DHT22;3431;47.966;10.268;2023-08-17T01:02:45;19.20;99.90
6788;DHT22;3431;47.966;10.268;2023-08-17T01:03:07;19.20;99.90
6788;DHT22;3431;47.966;10.268;2023-08-17T01:03:29;19.20;99.90
6788;DHT22;3431;47.966;10.268;2023-08-17T01:03:51;19.20;99.90
6788;DHT22;3431;47.966;10.268;2023-08-17T01:04:14;19.20;99.90
6788;DHT22;3431;47.966;10.268;2023-08-17T01:04:36;19.20;99.90
6788;DHT22;3431;47.966;10.268;2023-08-17T01:04:58;19.20;99.90
6788;DHT22;3431;47.966;10.268;2023-08-17T01:05:20;19.20;99.90
6788;DHT22;3431;47.966;10.268;2023-08-17T01:05:42;19.20;99.90
6788;DHT22;3431;47.966;10.268;2023-08-17T01:06:05;19.20;99.90
6788;DHT22;3431;47.966;10.268;2023-08-17T01:06:27;19.20;99.90
6788;DHT22;3431;47.966;10.268;2023-08-17T01:06:48;19.30;99.90
6788;DHT22;3431;47.966;10.268;2023-08-17T01:07:10;19.20;99.90
6788;DHT22;3431;47.966;10.268;2023-08-17T01:07:33;19.20;99.90
6788;DHT22;3431;47.966;10.268;2023-08-17T01:07:55;19.30;99.90
6788;DHT22;3431;47.966;10.268;2023-08-17T01:08:17;19.30;99.90
6788;DHT22;3431;47.966;10.268;2023-08-17T01:08:38;19.30;99.90
6788;DHT22;3431;47.966;10.268;2023-08-17T01:09:00;19.20;99.90
6788;DHT22;3431;47.966;10.268;2023-08-17T01:09:25;19.20;99.90
6788;DHT22;3431;47.966;10.268;2023-08-17T01:09:47;19.20;99.90
6788;DHT22;3431;47.966;10.268;2023-08-17T01:10:09;19.20;99.90
6788;DHT22;3431;47.966;10.268;2023-08-17T01:10:36;19.20;99.90
6788;DHT22;3431;47.966;10.268;2023-08-17T01:11:08;19.20;99.90
6788;DHT22;3431;47.966;10.268;2023-08-17T01:11:37;19.20;99.90
6788;DHT22;3431;47.966;10.268;2023-08-17T01:12:06;19.20;99.90
6788;DHT22;3431;47.966;10.268;2023-08-17T01:12:31;19.10;99.90
6788;DHT22;3431;47.966;10.268;2023-08-17T01:12:59;19.10;99.90
6788;DHT22;3431;47.966;10.268;2023-08-17T01:13:29;19.10;99.90
6788;DHT22;3431;47.966;10.268;2023-08-17T01:13:57;19.10;99.90
6788;DHT22;3431;47.966;10.268;2023-08-17T01:14:30;19.10;99.90
6788;DHT22;3431;47.966;10.268;2023-08-17T01:14:58;19.10;99.90
6788;DHT22;3431;47.966;10.268;2023-08-17T01:15:26;19.10;99.90
6788;DHT22;3431;47.966;10.268;2023-08-17T01:15:55;19.10;99.90
6788;DHT22;3431;47.966;10.268;2023-08-17T01:16:23;19.10;99.90
6788;DHT22;3431;47.966;10.268;2023-08-17T01:16:52;19.10;99.90
6788;DHT22;3431;47.966;10.268;2023-08-17T01:17:20;19.00;99.90
6788;DHT22;3431;47.966;10.268;2023-08-17T01:17:48;19.00;99.90
6788;DHT22;3431;47.966;10.268;2023-08-17T01:18:19;19.00;99.90
6788;DHT22;3431;47.966;10.268;2023-08-17T01:18:44;19.00;99.90
6788;DHT22;3431;47.966;10.268;2023-08-17T01:19:08;19.00;99.90
6788;DHT22;3431;47.966;10.268;2023-08-17T01:19:30;19.00;99.90
6788;DHT22;3431;47.966;10.268;2023-08-17T01:19:52;19.00;99.90
6788;DHT22;3431;47.966;10.268;2023-08-17T01:20:16;19.00;99.90
6788;DHT22;3431;47.966;10.268;2023-08-17T01:20:39;19.00;99.90
6788;DHT22;3431;47.966;10.268;2023-08-17T01:21:02;19.00;99.90
6788;DHT22;3431;47.966;10.268;2023-08-17T01:21:33;19.00;99.90
6788;DHT22;3431;47.966;10.268;2023-08-17T01:22:01;19.00;99.90
6788;DHT22;3431;47.966;10.268;2023-08-17T01:22:26;19.00;99.90
6788;DHT22;3431;47.966;10.268;2023-08-17T01:22:52;19.00;99.90
6788;DHT22;3431;47.966;10.268;2023-08-17T01:23:19;19.00;99.90
6788;DHT22;3431;47.966;10.268;2023-08-17T01:23:41;19.00;99.90
6788;DHT22;3431;47.966;10.268;2023-08-17T01:24:04;19.00;99.90
6788;DHT22;3431;47.966;10.268;2023-08-17T01:24:26;19.00;99.90
6788;DHT22;3431;47.966;10.268;2023-08-17T01:24:48;19.00;99.90
6788;DHT22;3431;47.966;10.268;2023-08-17T01:25:10;19.00;99.90
6788;DHT22;3431;47.966;10.268;2023-08-17T01:25:31;19.00;99.90
6788;DHT22;3431;47.966;10.268;2023-08-17T01:25:57;19.00;99.90
6788;DHT22;3431;47.966;10.268;2023-08-17T01:26:20;19.00;99.90
6788;DHT22;3431;47.966;10.268;2023-08-17T01:27:03;19.00;99.90
6788;DHT22;3431;47.966;10.268;2023-08-17T01:27:26;19.00;99.90
6788;DHT22;3431;47.966;10.268;2023-08-17T01:27:48;19.00;99.90
6788;DHT22;3431;47.966;10.268;2023-08-17T01:28:10;19.00;99.90
6788;DHT22;3431;47.966;10.268;2023-08-17T01:28:33;19.00;99.90
6788;DHT22;3431;47.966;10.268;2023-08-17T01:28:55;19.00;99.90
6788;DHT22;3431;47.966;10.268;2023-08-17T01:29:17;19.00;99.90
6788;DHT22;3431;47.966;10.268;2023-08-17T01:29:38;19.00;99.90
6788;DHT22;3431;47.966;10.268;2023-08-17T01:30:00;19.10;99.90
6788;DHT22;3431;47.966;10.268;2023-08-17T01:30:23;19.00;99.90
6788;DHT22;3431;47.966;10.268;2023-08-17T01:30:49;19.00;99.90
6788;DHT22;3431;47.966;10.268;2023-08-17T01:31:19;19.00;99.90
6788;DHT22;3431;47.966;10.268;2023-08-17T01:31:49;19.00;99.90
6788;DHT22;3431;47.966;10.268;2023-08-17T01:32:16;19.00;99.90
6788;DHT22;3431;47.966;10.268;2023-08-17T01:32:44;19.00;99.90
6788;DHT22;3431;47.966;10.268;2023-08-17T01:33:08;19.00;99.90
6788;DHT22;3431;47.966;10.268;2023-08-17T01:33:34;19.00;99.90
6788;DHT22;3431;47.966;10.268;2023-08-17T01:34:04;19.00;99.90
6788;DHT22;3431;47.966;10.268;2023-08-17T01:34:27;19.00;99.90
6788;DHT22;3431;47.966;10.268;2023-08-17T01:34:56;19.00;99.90
6788;DHT22;3431;47.966;10.268;2023-08-17T01:35:25;19.00;99.90
6788;DHT22;3431;47.966;10.268;2023-08-17T01:35:56;19.00;99.90
6788;DHT22;3431;47.966;10.268;2023-08-17T01:36:24;18.90;99.90
6788;DHT22;3431;47.966;10.268;2023-08-17T01:36:50;18.90;99.90
6788;DHT22;3431;47.966;10.268;2023-08-17T01:37:14;18.90;99.90
6788;DHT22;3431;47.966;10.268;2023-08-17T01:37:38;18.90;99.90
6788;DHT22;3431;47.966;10.268;2023-08-17T01:38:07;18.90;99.90
6788;DHT22;3431;47.966;10.268;2023-08-17T01:38:34;18.90;99.90
6788;DHT22;3431;47.966;10.268;2023-08-17T01:38:57;18.90;99.90
6788;DHT22;3431;47.966;10.268;2023-08-17T01:39:23;18.90;99.90
6788;DHT22;3431;47.966;10.268;2023-08-17T01:39:49;18.90;99.90
6788;DHT22;3431;47.966;10.268;2023-08-17T01:40:12;18.90;99.90
6788;DHT22;3431;47.966;10.268;2023-08-17T01:40:36;18.90;99.90
6788;DHT22;3431;47.966;10.268;2023-08-17T01:40:58;18.90;99.90
6788;DHT22;3431;47.966;10.268;2023-08-17T01:41:23;18.90;99.90
6788;DHT22;3431;47.966;10.268;2023-08-17T01:41:46;18.90;99.90
6788;DHT22;3431;47.966;10.268;2023-08-17T01:42:09;18.90;99.90
6788;DHT22;3431;47.966;10.268;2023-08-17T01:42:33;18.80;99.90
6788;DHT22;3431;47.966;10.268;2023-08-17T01:42:55;18.80;99.90
6788;DHT22;3431;47.966;10.268;2023-08-17T01:43:18;18.80;99.90
6788;DHT22;3431;47.966;10.268;2023-08-17T01:43:41;18.80;99.90
6788;DHT22;3431;47.966;10.268;2023-08-17T01:44:07;18.80;99.90
6788;DHT22;3431;47.966;10.268;2023-08-17T01:44:29;18.80;99.90
6788;DHT22;3431;47.966;10.268;2023-08-17T01:44:51;18.80;99.90
6788;DHT22;3431;47.966;10.268;2023-08-17T01:45:13;18.70;99.90
6788;DHT22;3431;47.966;10.268;2023-08-17T01:45:35;18.70;99.90
6788;DHT22;3431;47.966;10.268;2023-08-17T01:45:56;18.70;99.90
6788;DHT22;3431;47.966;10.268;2023-08-17T01:46:18;18.70;99.90
6788;DHT22;3431;47.966;10.268;2023-08-17T01:46:40;18.70;99.90
6788;DHT22;3431;47.966;10.268;2023-08-17T01:47:03;18.70;99.90
6788;DHT22;3431;47.966;10.268;2023-08-17T01:47:25;18.70;99.90
6788;DHT22;3431;47.966;10.268;2023-08-17T01:47:46;18.70;99.90
6788;DHT22;3431;47.966;10.268;2023-08-17T01:48:10;18.70;99.90
6788;DHT22;3431;47.966;10.268;2023-08-17T01:48:32;18.70;99.90
6788;DHT22;3431;47.966;10.268;2023-08-17T01:48:54;18.70;99.90
6788;DHT22;3431;47.966;10.268;2023-08-17T01:49:18;18.70;99.90
6788;DHT22;3431;47.966;10.268;2023-08-17T01:49:40;18.60;99.90
6788;DHT22;3431;47.966;10.268;2023-08-17T01:50:02;18.60;99.90
6788;DHT22;3431;47.966;10.268;2023-08-17T01:50:24;18.60;99.90
6788;DHT22;3431;47.966;10.268;2023-08-17T01:50:46;18.60;99.90
6788;DHT22;3431;47.966;10.268;2023-08-17T01:51:07;18.60;99.90
6788;DHT22;3431;47.966;10.268;2023-08-17T01:51:29;18.60;99.90
6788;DHT22;3431;47.966;10.268;2023-08-17T01:51:50;18.60;99.90
6788;DHT22;3431;47.966;10.268;2023-08-17T01:52:12;18.60;99.90
6788;DHT22;3431;47.966;10.268;2023-08-17T01:52:34;18.60;99.90
6788;DHT22;3431;47.966;10.268;2023-08-17T01:52:56;18.50;99.90
6788;DHT22;3431;47.966;10.268;2023-08-17T01:53:18;18.50;99.90
6788;DHT22;3431;47.966;10.268;2023-08-17T01:53:41;18.50;99.90
6788;DHT22;3431;47.966;10.268;2023-08-17T01:54:02;18.50;99.90
6788;DHT22;3431;47.966;10.268;2023-08-17T01:54:24;18.50;99.90
6788;DHT22;3431;47.966;10.268;2023-08-17T01:54:46;18.50;99.90
6788;DHT22;3431;47.966;10.268;2023-08-17T01:55:08;18.50;99.90
6788;DHT22;3431;47.966;10.268;2023-08-17T01:55:31;18.50;99.90
6788;DHT22;3431;47.966;10.268;2023-08-17T01:55:52;18.50;99.90
6788;DHT22;3431;47.966;10.268;2023-08-17T01:56:14;18.50;99.90
6788;DHT22;3431;47.966;10.268;2023-08-17T01:56:36;18.50;99.90
6788;DHT22;3431;47.966;10.268;2023-08-17T01:56:58;18.50;99.90
6788;DHT22;3431;47.966;10.268;2023-08-17T01:57:19;18.50;99.90
6788;DHT22;3431;47.966;10.268;2023-08-17T01:57:41;18.50;99.90
6788;DHT22;3431;47.966;10.268;2023-08-17T01:58:03;18.50;99.90
6788;DHT22;3431;47.966;10.268;2023-08-17T01:58:24;18.40;99.90
6788;DHT22;3431;47.966;10.268;2023-08-17T01:58:47;18.50;99.90
6788;DHT22;3431;47.966;10.268;2023-08-17T01:59:09;18.50;99.90
6788;DHT22;3431;47.966;10.268;2023-08-17T01:59:31;18.50;99.90
6788;DHT22;3431;47.966;10.268;2023-08-17T01:59:52;18.40;99.90
6788;DHT22;3431;47.966;10.268;2023-08-17T02:00:15;18.50;99.90
6788;DHT22;3431;47.966;10.268;2023-08-17T02:00:37;18.50;99.90
6788;DHT22;3431;47.966;10.268;2023-08-17T02:00:59;18.50;99.90
6788;DHT22;3431;47.966;10.268;2023-08-17T02:01:20;18.40;99.90
6788;DHT22;3431;47.966;10.268;2023-08-17T02:01:42;18.50;99.90
6788;DHT22;3431;47.966;10.268;2023-08-17T02:02:03;18.50;99.90
6788;DHT22;3431;47.966;10.268;2023-08-17T02:02:26;18.50;99.90
6788;DHT22;3431;47.966;10.268;2023-08-17T02:02:48;18.50;99.90
6788;DHT22;3431;47.966;10.268;2023-08-17T02:03:10;18.50;99.90
6788;DHT22;3431;47.966;10.268;2023-08-17T02:03:54;18.50;99.90
6788;DHT22;3431;47.966;10.268;2023-08-17T02:04:17;18.50;99.90
6788;DHT22;3431;47.966;10.268;2023-08-17T02:04:38;18.50;99.90
6788;DHT22;3431;47.966;10.268;2023-08-17T02:05:01;18.50;99.90
6788;DHT22;3431;47.966;10.268;2023-08-17T02:05:23;18.50;99.90
6788;DHT22;3431;47.966;10.268;2023-08-17T02:05:44;18.50;99.90
6788;DHT22;3431;47.966;10.268;2023-08-17T02:06:10;18.50;99.90
6788;DHT22;3431;47.966;10.268;2023-08-17T02:06:31;18.50;99.90
6788;DHT22;3431;47.966;10.268;2023-08-17T02:06:53;18.50;99.90
6788;DHT22;3431;47.966;10.268;2023-08-17T02:07:14;18.50;99.90
6788;DHT22;3431;47.966;10.268;2023-08-17T02:07:36;18.50;99.90
6788;DHT22;3431;47.966;10.268;2023-08-17T02:07:57;18.50;99.90
6788;DHT22;3431;47.966;10.268;2023-08-17T02:08:23;18.50;99.90
6788;DHT22;3431;47.966;10.268;2023-08-17T02:08:46;18.50;99.90
6788;DHT22;3431;47.966;10.268;2023-08-17T02:09:07;18.50;99.90
6788;DHT22;3431;47.966;10.268;2023-08-17T02:09:31;18.50;99.90
6788;DHT22;3431;47.966;10.268;2023-08-17T02:09:53;18.50;99.90
6788;DHT22;3431;47.966;10.268;2023-08-17T02:10:15;18.50;99.90
6788;DHT22;3431;47.966;10.268;2023-08-17T02:10:36;18.50;99.90
6788;DHT22;3431;47.966;10.268;2023-08-17T02:10:58;18.50;99.90
6788;DHT22;3431;47.966;10.268;2023-08-17T02:11:20;18.50;99.90
6788;DHT22;3431;47.966;10.268;2023-08-17T02:11:42;18.50;99.90
6788;DHT22;3431;47.966;10.268;2023-08-17T02:12:04;18.50;99.90
6788;DHT22;3431;47.966;10.268;2023-08-17T02:12:26;18.50;99.90
6788;DHT22;3431;47.966;10.268;2023-08-17T02:12:48;18.50;99.90
6788;DHT22;3431;47.966;10.268;2023-08-17T02:13:09;18.50;99.90
6788;DHT22;3431;47.966;10.268;2023-08-17T02:13:32;18.50;99.90
6788;DHT22;3431;47.966;10.268;2023-08-17T02:13:58;18.50;99.90
6788;DHT22;3431;47.966;10.268;2023-08-17T02:14:19;18.40;99.90
6788;DHT22;3431;47.966;10.268;2023-08-17T02:14:41;18.40;99.90
6788;DHT22;3431;47.966;10.268;2023-08-17T02:15:03;18.40;99.90
6788;DHT22;3431;47.966;10.268;2023-08-17T02:15:25;18.40;99.90
6788;DHT22;3431;47.966;10.268;2023-08-17T02:15:47;18.40;99.90
6788;DHT22;3431;47.966;10.268;2023-08-17T02:16:08;18.40;99.90
6788;DHT22;3431;47.966;10.268;2023-08-17T02:16:30;18.40;99.90
6788;DHT22;3431;47.966;10.268;2023-08-17T02:16:53;18.40;99.90
6788;DHT22;3431;47.966;10.268;2023-08-17T02:17:15;18.40;99.90
6788;DHT22;3431;47.966;10.268;2023-08-17T02:17:37;18.40;99.90
6788;DHT22;3431;47.966;10.268;2023-08-17T02:18:00;18.40;99.90
6788;DHT22;3431;47.966;10.268;2023-08-17T02:18:22;18.40;99.90
6788;DHT22;3431;47.966;10.268;2023-08-17T02:18:45;18.40;99.90
6788;DHT22;3431;47.966;10.268;2023-08-17T02:19:08;18.40;99.90
6788;DHT22;3431;47.966;10.268;2023-08-17T02:19:29;18.40;99.90
6788;DHT22;3431;47.966;10.268;2023-08-17T02:19:51;18.30;99.90
6788;DHT22;3431;47.966;10.268;2023-08-17T02:20:13;18.30;99.90
6788;DHT22;3431;47.966;10.268;2023-08-17T02:20:37;18.30;99.90
6788;DHT22;3431;47.966;10.268;2023-08-17T02:20:59;18.30;99.90
6788;DHT22;3431;47.966;10.268;2023-08-17T02:21:21;18.30;99.90
6788;DHT22;3431;47.966;10.268;2023-08-17T02:21:43;18.30;99.90
6788;DHT22;3431;47.966;10.268;2023-08-17T02:22:05;18.30;99.90
6788;DHT22;3431;47.966;10.268;2023-08-17T02:22:27;18.30;99.90
6788;DHT22;3431;47.966;10.268;2023-08-17T02:22:50;18.30;99.90
6788;DHT22;3431;47.966;10.268;2023-08-17T02:23:12;18.30;99.90
6788;DHT22;3431;47.966;10.268;2023-08-17T02:23:34;18.30;99.90
6788;DHT22;3431;47.966;10.268;2023-08-17T02:23:57;18.30;99.90
6788;DHT22;3431;47.966;10.268;2023-08-17T02:24:18;18.30;99.90
6788;DHT22;3431;47.966;10.268;2023-08-17T02:24:40;18.30;99.90
6788;DHT22;3431;47.966;10.268;2023-08-17T02:25:03;18.30;99.90
6788;DHT22;3431;47.966;10.268;2023-08-17T02:25:25;18.30;99.90
6788;DHT22;3431;47.966;10.268;2023-08-17T02:25:47;18.30;99.90
6788;DHT22;3431;47.966;10.268;2023-08-17T02:26:09;18.30;99.90
6788;DHT22;3431;47.966;10.268;2023-08-17T02:26:32;18.30;99.90
6788;DHT22;3431;47.966;10.268;2023-08-17T02:26:54;18.30;99.90